createdAt,value
2022-11-28T00:00:11.201Z,6.97
2022-11-28T00:01:11.207Z,6.91
2022-11-28T00:02:11.345Z,6.94
2022-11-28T00:03:11.536Z,6.95
2022-11-28T00:04:11.374Z,6.97
2022-11-28T00:05:11.280Z,6.98
2022-11-28T00:06:11.324Z,6.98
2022-11-28T00:07:11.268Z,6.98
2022-11-28T00:08:11.153Z,6.99
2022-11-28T00:09:11.200Z,6.97
2022-11-28T00:10:11.285Z,7.01
2022-11-28T00:11:11.194Z,6.99
2022-11-28T00:12:11.207Z,6.99
2022-11-28T00:13:11.095Z,6.98
2022-11-28T00:14:11.056Z,6.99
2022-11-28T00:15:11.062Z,6.99
2022-11-28T00:16:11.142Z,7.01
2022-11-28T00:17:11.250Z,7.02
2022-11-28T00:18:11.095Z,7.01
2022-11-28T00:19:11.015Z,7.02
2022-11-28T00:20:10.999Z,7.01
2022-11-28T00:21:10.990Z,7.02
2022-11-28T00:22:11.001Z,7.02
2022-11-28T00:23:11.123Z,7.02
2022-11-28T00:24:10.964Z,7.02
2022-11-28T00:25:11.117Z,7.04
2022-11-28T00:26:10.935Z,7.04
2022-11-28T00:27:10.961Z,7.04
2022-11-28T00:28:10.946Z,7.02
2022-11-28T00:29:10.964Z,7.02
2022-11-28T00:30:10.905Z,7.02
2022-11-28T00:31:11.083Z,7.05
2022-11-28T00:32:10.914Z,7.04
2022-11-28T00:33:11.007Z,7.05
2022-11-28T00:34:11.132Z,7.07
2022-11-28T00:35:10.933Z,7.08
2022-11-28T00:36:10.867Z,7.08
2022-11-28T00:37:11.018Z,7.08
2022-11-28T00:38:11.018Z,7.09
2022-11-28T00:39:10.987Z,7.12
2022-11-28T00:40:10.983Z,7.13
2022-11-28T00:41:10.965Z,7.13
2022-11-28T00:42:11.109Z,7.13
2022-11-28T00:43:10.868Z,7.16
2022-11-28T00:44:10.866Z,7.15
2022-11-28T00:45:10.758Z,7.15
2022-11-28T00:46:11.016Z,7.15
2022-11-28T00:47:10.824Z,7.15
2022-11-28T00:48:11.250Z,7.16
2022-11-28T00:49:10.718Z,7.16
2022-11-28T00:50:10.713Z,7.16
2022-11-28T00:51:10.774Z,7.16
2022-11-28T00:52:10.778Z,7.15
2022-11-28T00:53:11.115Z,7.15
2022-11-28T00:54:10.898Z,7.15
2022-11-28T00:55:10.846Z,7.17
2022-11-28T00:56:10.656Z,7.17
2022-11-28T00:57:10.731Z,7.19
2022-11-28T00:58:10.665Z,7.20
2022-11-28T00:59:10.732Z,7.20
2022-11-28T01:00:10.605Z,7.20
2022-11-28T01:01:10.631Z,7.20
2022-11-28T01:02:10.732Z,7.22
2022-11-28T01:03:10.571Z,7.22
2022-11-28T01:04:10.744Z,7.22
2022-11-28T01:05:10.933Z,7.22
2022-11-28T01:06:10.734Z,7.22
2022-11-28T01:07:10.549Z,7.23
2022-11-28T01:08:10.715Z,7.23
2022-11-28T01:09:10.734Z,7.24
2022-11-28T01:10:10.654Z,7.24
2022-11-28T01:11:10.649Z,7.26
2022-11-28T01:12:10.512Z,7.26
2022-11-28T01:13:10.462Z,7.26
2022-11-28T01:14:10.488Z,7.27
2022-11-28T01:15:10.473Z,7.29
2022-11-28T01:16:10.676Z,7.27
2022-11-28T01:17:10.488Z,7.29
2022-11-28T01:18:10.442Z,7.29
2022-11-28T01:19:10.398Z,7.29
2022-11-28T01:20:10.481Z,7.29
2022-11-28T01:21:10.429Z,7.31
2022-11-28T01:22:10.356Z,7.29
2022-11-28T01:23:10.578Z,7.31
2022-11-28T01:24:10.418Z,7.31
2022-11-28T01:25:10.377Z,7.34
2022-11-28T01:26:10.427Z,7.32
2022-11-28T01:27:10.486Z,7.32
2022-11-28T01:28:10.432Z,7.34
2022-11-28T01:29:10.431Z,7.34
2022-11-28T01:30:10.397Z,7.35
2022-11-28T01:31:10.558Z,7.34
2022-11-28T01:32:10.405Z,7.35
2022-11-28T01:33:10.304Z,7.38
2022-11-28T01:34:10.444Z,7.38
2022-11-28T01:35:10.310Z,7.38
2022-11-28T01:36:10.457Z,7.40
2022-11-28T01:37:10.221Z,7.40
2022-11-28T01:38:10.220Z,7.41
2022-11-28T01:39:10.354Z,7.41
2022-11-28T01:40:10.199Z,7.41
2022-11-28T01:41:10.278Z,7.42
2022-11-28T01:42:10.499Z,7.42
2022-11-28T01:43:10.401Z,7.41
2022-11-28T01:44:10.282Z,7.44
2022-11-28T01:45:10.272Z,7.44
2022-11-28T01:46:10.322Z,7.44
2022-11-28T01:47:10.300Z,7.45
2022-11-28T01:48:10.280Z,7.45
2022-11-28T01:49:10.286Z,7.47
2022-11-28T01:50:10.284Z,7.49
2022-11-28T01:51:10.245Z,7.50
2022-11-28T01:52:10.075Z,7.49
2022-11-28T01:53:10.259Z,7.50
2022-11-28T01:54:10.294Z,7.50
2022-11-28T01:55:10.120Z,7.50
2022-11-28T01:56:10.048Z,7.52
2022-11-28T01:57:10.204Z,7.52
2022-11-28T01:58:10.090Z,7.50
2022-11-28T01:59:10.158Z,7.50
2022-11-28T02:00:10.018Z,7.53
2022-11-28T02:01:10.244Z,7.52
2022-11-28T02:02:10.171Z,7.52
2022-11-28T02:03:10.109Z,7.52
2022-11-28T02:04:09.960Z,7.53
2022-11-28T02:05:09.962Z,7.53
2022-11-28T02:06:09.927Z,7.52
2022-11-28T02:07:10.105Z,7.55
2022-11-28T02:08:10.236Z,7.55
2022-11-28T02:09:10.067Z,7.52
2022-11-28T02:10:09.897Z,7.52
2022-11-28T02:11:09.939Z,7.52
2022-11-28T02:12:10.072Z,7.52
2022-11-28T02:13:10.026Z,7.52
2022-11-28T02:14:10.072Z,7.50
2022-11-28T02:15:10.082Z,7.49
2022-11-28T02:16:10.126Z,7.49
2022-11-28T02:17:10.204Z,7.47
2022-11-28T02:18:09.859Z,7.47
2022-11-28T02:19:09.957Z,7.45
2022-11-28T02:20:09.907Z,7.45
2022-11-28T02:21:09.831Z,7.44
2022-11-28T02:22:10.054Z,7.42
2022-11-28T02:23:09.791Z,7.42
2022-11-28T02:24:10.212Z,7.41
2022-11-28T02:25:09.931Z,7.42
2022-11-28T02:26:09.827Z,7.42
2022-11-28T02:27:09.846Z,7.41
2022-11-28T02:28:09.814Z,7.40
2022-11-28T02:29:09.881Z,7.40
2022-11-28T02:30:09.867Z,7.38
2022-11-28T02:31:09.921Z,7.40
2022-11-28T02:32:10.022Z,7.37
2022-11-28T02:33:09.827Z,7.38
2022-11-28T02:34:09.804Z,7.37
2022-11-28T02:35:09.674Z,7.38
2022-11-28T02:36:09.666Z,7.37
2022-11-28T02:37:09.822Z,7.37
2022-11-28T02:38:10.107Z,7.38
2022-11-28T02:39:09.634Z,7.38
2022-11-28T02:40:09.926Z,7.38
2022-11-28T02:41:09.613Z,7.40
2022-11-28T02:42:09.744Z,7.38
2022-11-28T02:43:09.849Z,7.40
2022-11-28T02:44:09.736Z,7.38
2022-11-28T02:45:09.755Z,7.38
2022-11-28T02:46:09.704Z,7.40
2022-11-28T02:47:09.884Z,7.41
2022-11-28T02:48:09.651Z,7.38
2022-11-28T02:49:09.546Z,7.37
2022-11-28T02:50:09.625Z,7.37
2022-11-28T02:51:09.707Z,7.38
2022-11-28T02:52:09.477Z,7.35
2022-11-28T02:53:09.653Z,7.35
2022-11-28T02:54:09.563Z,7.34
2022-11-28T02:55:09.584Z,7.31
2022-11-28T02:56:09.676Z,7.31
2022-11-28T02:57:09.508Z,7.29
2022-11-28T02:58:09.642Z,7.27
2022-11-28T02:59:09.545Z,7.24
2022-11-28T03:00:10.853Z,7.23
2022-11-28T03:01:09.837Z,7.23
2022-11-28T03:02:09.623Z,7.24
2022-11-28T03:03:09.409Z,7.23
2022-11-28T03:04:09.711Z,7.19
2022-11-28T03:05:09.446Z,7.20
2022-11-28T03:06:09.457Z,7.19
2022-11-28T03:07:09.386Z,7.17
2022-11-28T03:08:09.492Z,7.19
2022-11-28T03:09:09.306Z,7.17
2022-11-28T03:10:09.415Z,7.16
2022-11-28T03:11:09.526Z,7.16
2022-11-28T03:12:09.452Z,7.15
2022-11-28T03:13:09.366Z,7.13
2022-11-28T03:14:09.352Z,7.15
2022-11-28T03:15:09.386Z,7.15
2022-11-28T03:16:09.448Z,7.13
2022-11-28T03:17:09.451Z,7.13
2022-11-28T03:18:09.409Z,7.13
2022-11-28T03:19:09.200Z,7.13
2022-11-28T03:20:09.216Z,7.15
2022-11-28T03:21:09.609Z,7.13
2022-11-28T03:22:09.349Z,7.12
2022-11-28T03:23:09.353Z,7.13
2022-11-28T03:24:09.193Z,7.12
2022-11-28T03:25:09.482Z,7.08
2022-11-28T03:26:09.370Z,7.07
2022-11-28T03:27:09.159Z,7.05
2022-11-28T03:28:09.371Z,7.07
2022-11-28T03:29:09.175Z,7.04
2022-11-28T03:30:09.309Z,7.04
2022-11-28T03:31:09.568Z,7.04
2022-11-28T03:32:09.235Z,7.05
2022-11-28T03:33:09.255Z,7.04
2022-11-28T03:34:09.208Z,7.02
2022-11-28T03:35:09.144Z,7.02
2022-11-28T03:36:09.038Z,7.01
2022-11-28T03:37:09.025Z,7.01
2022-11-28T03:38:09.212Z,7.02
2022-11-28T03:39:09.008Z,7.01
2022-11-28T03:40:09.019Z,6.99
2022-11-28T03:41:09.088Z,7.02
2022-11-28T03:42:08.983Z,7.01
2022-11-28T03:43:09.061Z,7.01
2022-11-28T03:44:08.947Z,7.02
2022-11-28T03:45:09.143Z,7.02
2022-11-28T03:46:09.330Z,6.99
2022-11-28T03:47:09.223Z,6.99
2022-11-28T03:48:09.030Z,7.01
2022-11-28T03:49:08.917Z,6.99
2022-11-28T03:50:09.065Z,6.99
2022-11-28T03:51:09.043Z,6.98
2022-11-28T03:52:09.051Z,7.01
2022-11-28T03:53:09.214Z,7.01
2022-11-28T03:54:09.204Z,7.01
2022-11-28T03:55:08.855Z,7.01
2022-11-28T03:56:09.209Z,7.01
2022-11-28T03:57:08.886Z,6.99
2022-11-28T03:58:08.858Z,6.97
2022-11-28T03:59:08.956Z,6.98
2022-11-28T04:00:08.997Z,6.99
2022-11-28T04:01:08.895Z,6.98
2022-11-28T04:02:08.925Z,6.98
2022-11-28T04:03:08.935Z,6.97
2022-11-28T04:04:08.980Z,6.99
2022-11-28T04:05:08.797Z,6.98
2022-11-28T04:06:08.753Z,6.98
2022-11-28T04:07:08.895Z,6.95
2022-11-28T04:08:08.861Z,6.95
2022-11-28T04:09:13.005Z,6.95
2022-11-28T04:10:08.896Z,6.94
2022-11-28T04:11:08.732Z,6.94
2022-11-28T04:12:08.677Z,6.94
2022-11-28T04:13:08.673Z,6.91
2022-11-28T04:14:08.658Z,6.95
2022-11-28T04:15:08.660Z,6.94
2022-11-28T04:16:08.777Z,6.94
2022-11-28T04:17:08.704Z,6.95
2022-11-28T04:18:08.709Z,6.95
2022-11-28T04:19:08.641Z,6.94
2022-11-28T04:20:08.663Z,6.94
2022-11-28T04:21:08.642Z,6.95
2022-11-28T04:22:08.621Z,6.95
2022-11-28T04:23:08.635Z,6.95
2022-11-28T04:24:08.563Z,6.91
2022-11-28T04:25:08.580Z,6.91
2022-11-28T04:26:08.538Z,6.94
2022-11-28T04:27:08.562Z,6.91
2022-11-28T04:28:08.679Z,6.91
2022-11-28T04:29:08.692Z,6.94
2022-11-28T04:30:08.605Z,6.90
2022-11-28T04:31:08.726Z,6.90
2022-11-28T04:32:08.638Z,6.90
2022-11-28T04:33:08.722Z,6.90
2022-11-28T04:34:08.595Z,6.89
2022-11-28T04:35:08.904Z,6.87
2022-11-28T04:36:08.469Z,6.89
2022-11-28T04:37:09.928Z,6.89
2022-11-28T04:38:08.479Z,6.90
2022-11-28T04:39:08.838Z,6.90
2022-11-28T04:40:08.533Z,6.90
2022-11-28T04:41:08.766Z,6.90
2022-11-28T04:42:08.383Z,6.91
2022-11-28T04:43:08.420Z,6.89
2022-11-28T04:44:08.675Z,6.89
2022-11-28T04:45:08.352Z,6.89
2022-11-28T04:46:08.481Z,6.89
2022-11-28T04:47:08.421Z,6.87
2022-11-28T04:48:08.344Z,6.89
2022-11-28T04:49:08.312Z,6.87
2022-11-28T04:50:08.578Z,6.86
2022-11-28T04:51:08.316Z,6.89
2022-11-28T04:52:08.297Z,6.86
2022-11-28T04:53:08.311Z,6.84
2022-11-28T04:54:08.491Z,6.87
2022-11-28T04:55:08.234Z,6.86
2022-11-28T04:56:08.201Z,6.86
2022-11-28T04:57:08.213Z,6.84
2022-11-28T04:58:08.255Z,6.84
2022-11-28T04:59:08.599Z,6.84
2022-11-28T05:00:08.434Z,6.83
2022-11-28T05:01:08.266Z,6.81
2022-11-28T05:02:08.242Z,6.81
2022-11-28T05:03:08.241Z,6.81
2022-11-28T05:04:08.217Z,6.81
2022-11-28T05:05:08.177Z,6.79
2022-11-28T05:06:08.413Z,6.80
2022-11-28T05:07:08.223Z,6.79
2022-11-28T05:08:08.187Z,6.79
2022-11-28T05:09:08.156Z,6.77
2022-11-28T05:10:08.161Z,6.77
2022-11-28T05:11:08.200Z,6.77
2022-11-28T05:12:08.117Z,6.73
2022-11-28T05:13:08.112Z,6.72
2022-11-28T05:14:08.054Z,6.73
2022-11-28T05:15:08.055Z,6.73
2022-11-28T05:16:08.287Z,6.72
2022-11-28T05:17:08.075Z,6.72
2022-11-28T05:18:08.137Z,6.73
2022-11-28T05:19:08.079Z,6.71
2022-11-28T05:20:08.054Z,6.72
2022-11-28T05:21:08.536Z,6.72
2022-11-28T05:22:08.153Z,6.69
2022-11-28T05:23:08.056Z,6.69
2022-11-28T05:24:08.083Z,6.69
2022-11-28T05:25:07.953Z,6.71
2022-11-28T05:26:08.045Z,6.65
2022-11-28T05:27:07.943Z,6.63
2022-11-28T05:28:07.941Z,6.62
2022-11-28T05:29:07.984Z,6.62
2022-11-28T05:30:08.338Z,6.61
2022-11-28T05:31:08.171Z,6.59
2022-11-28T05:32:07.960Z,6.59
2022-11-28T05:33:07.866Z,6.59
2022-11-28T05:34:07.845Z,6.59
2022-11-28T05:35:08.086Z,6.61
2022-11-28T05:36:12.638Z,6.58
2022-11-28T05:37:07.818Z,6.59
2022-11-28T05:38:13.260Z,6.59
2022-11-28T05:39:07.879Z,6.61
2022-11-28T05:40:07.778Z,6.62
2022-11-28T05:41:07.955Z,6.62
2022-11-28T05:42:07.768Z,6.62
2022-11-28T05:43:07.840Z,6.61
2022-11-28T05:44:07.800Z,6.62
2022-11-28T05:45:07.812Z,6.61
2022-11-28T05:46:07.779Z,6.62
2022-11-28T05:47:07.883Z,6.61
2022-11-28T05:48:07.810Z,6.61
2022-11-28T05:49:07.781Z,6.62
2022-11-28T05:50:07.766Z,6.59
2022-11-28T05:51:07.774Z,6.59
2022-11-28T05:52:07.794Z,6.58
2022-11-28T05:53:07.700Z,6.54
2022-11-28T05:54:07.665Z,6.54
2022-11-28T05:55:07.808Z,6.53
2022-11-28T05:56:07.851Z,6.53
2022-11-28T05:57:07.720Z,6.51
2022-11-28T05:58:07.809Z,6.54
2022-11-28T05:59:07.791Z,6.54
2022-11-28T06:00:07.714Z,6.53
2022-11-28T06:01:07.732Z,6.53
2022-11-28T06:02:07.930Z,6.53
2022-11-28T06:03:08.352Z,6.54
2022-11-28T06:04:07.773Z,6.53
2022-11-28T06:05:27.726Z,6.56
2022-11-28T06:06:07.729Z,6.56
2022-11-28T06:07:07.516Z,6.54
2022-11-28T06:08:07.799Z,6.54
2022-11-28T06:09:07.556Z,6.54
2022-11-28T06:10:07.463Z,6.56
2022-11-28T06:11:07.747Z,6.54
2022-11-28T06:12:07.718Z,6.54
2022-11-28T06:13:07.535Z,6.53
2022-11-28T06:14:07.446Z,6.53
2022-11-28T06:15:07.438Z,6.53
2022-11-28T06:16:07.480Z,6.51
2022-11-28T06:17:07.438Z,6.53
2022-11-28T06:18:07.412Z,6.51
2022-11-28T06:19:07.438Z,6.50
2022-11-28T06:20:07.509Z,6.48
2022-11-28T06:21:07.396Z,6.50
2022-11-28T06:22:07.479Z,6.51
2022-11-28T06:23:07.396Z,6.50
2022-11-28T06:24:07.339Z,6.50
2022-11-28T06:25:07.352Z,6.51
2022-11-28T06:26:07.313Z,6.50
2022-11-28T06:27:07.313Z,6.48
2022-11-28T06:28:07.472Z,6.46
2022-11-28T06:29:07.337Z,6.47
2022-11-28T06:30:07.383Z,6.48
2022-11-28T06:31:07.310Z,6.48
2022-11-28T06:32:07.358Z,6.47
2022-11-28T06:33:07.292Z,6.47
2022-11-28T06:34:07.267Z,6.46
2022-11-28T06:35:07.481Z,6.46
2022-11-28T06:36:07.270Z,6.43
2022-11-28T06:37:07.276Z,6.43
2022-11-28T06:38:12.878Z,6.41
2022-11-28T06:39:07.238Z,6.43
2022-11-28T06:40:07.398Z,6.41
2022-11-28T06:41:07.273Z,6.41
2022-11-28T06:42:07.205Z,6.43
2022-11-28T06:43:07.175Z,6.38
2022-11-28T06:44:07.369Z,6.40
2022-11-28T06:45:07.263Z,6.38
2022-11-28T06:46:09.934Z,6.40
2022-11-28T06:47:07.393Z,6.36
2022-11-28T06:48:07.229Z,6.35
2022-11-28T06:49:07.194Z,6.36
2022-11-28T06:50:07.198Z,6.36
2022-11-28T06:51:07.281Z,6.38
2022-11-28T06:52:07.125Z,6.40
2022-11-28T06:53:07.113Z,6.40
2022-11-28T06:54:07.312Z,6.41
2022-11-28T06:55:07.074Z,6.41
2022-11-28T06:56:07.031Z,6.41
2022-11-28T06:57:07.050Z,6.44
2022-11-28T06:58:07.182Z,6.41
2022-11-28T06:59:07.084Z,6.43
2022-11-28T07:00:07.149Z,6.44
2022-11-28T07:01:07.206Z,6.44
2022-11-28T07:02:08.092Z,6.46
2022-11-28T07:03:07.207Z,6.46
2022-11-28T07:04:07.187Z,6.46
2022-11-28T07:05:07.015Z,6.44
2022-11-28T07:06:07.178Z,6.44
2022-11-28T07:07:07.034Z,6.47
2022-11-28T07:08:07.168Z,6.47
2022-11-28T07:09:06.996Z,6.48
2022-11-28T07:10:07.144Z,6.48
2022-11-28T07:11:06.948Z,6.48
2022-11-28T07:12:07.020Z,6.48
2022-11-28T07:13:07.021Z,6.50
2022-11-28T07:14:07.074Z,6.50
2022-11-28T07:15:07.045Z,6.51
2022-11-28T07:16:07.021Z,6.51
2022-11-28T07:17:07.150Z,6.51
2022-11-28T07:18:07.054Z,6.53
2022-11-28T07:19:06.811Z,6.53
2022-11-28T07:20:06.838Z,6.56
2022-11-28T07:21:06.762Z,6.54
2022-11-28T07:22:06.896Z,6.53
2022-11-28T07:23:06.891Z,6.53
2022-11-28T07:24:06.754Z,6.53
2022-11-28T07:25:06.798Z,6.58
2022-11-28T07:26:06.771Z,6.58
2022-11-28T07:27:06.751Z,6.58
2022-11-28T07:28:06.732Z,6.61
2022-11-28T07:29:06.726Z,6.61
2022-11-28T07:30:06.943Z,6.61
2022-11-28T07:31:06.699Z,6.59
2022-11-28T07:32:07.471Z,6.62
2022-11-28T07:33:06.665Z,6.62
2022-11-28T07:34:06.687Z,6.62
2022-11-28T07:35:06.675Z,6.63
2022-11-28T07:36:06.639Z,6.63
2022-11-28T07:37:06.837Z,6.63
2022-11-28T07:38:06.625Z,6.65
2022-11-28T07:39:06.620Z,6.63
2022-11-28T07:40:06.826Z,6.66
2022-11-28T07:41:06.705Z,6.66
2022-11-28T07:42:06.587Z,6.66
2022-11-28T07:43:06.587Z,6.69
2022-11-28T07:44:06.606Z,6.69
2022-11-28T07:45:06.565Z,6.72
2022-11-28T07:46:06.844Z,6.73
2022-11-28T07:47:06.752Z,6.72
2022-11-28T07:48:06.529Z,6.73
2022-11-28T07:49:06.761Z,6.73
2022-11-28T07:50:06.584Z,6.76
2022-11-28T07:51:06.507Z,6.77
2022-11-28T07:52:06.548Z,6.76
2022-11-28T07:53:07.481Z,6.77
2022-11-28T07:54:06.575Z,6.77
2022-11-28T07:55:06.481Z,6.77
2022-11-28T07:56:06.565Z,6.79
2022-11-28T07:57:13.745Z,6.81
2022-11-28T07:58:06.693Z,6.81
2022-11-28T07:59:06.512Z,6.81
2022-11-28T08:00:06.390Z,6.81
2022-11-28T08:01:06.557Z,6.84
2022-11-28T08:02:06.629Z,6.84
2022-11-28T08:03:06.579Z,6.83
2022-11-28T08:04:06.580Z,6.83
2022-11-28T08:05:06.567Z,6.81
2022-11-28T08:06:06.526Z,6.83
2022-11-28T08:07:06.355Z,6.81
2022-11-28T08:08:06.481Z,6.84
2022-11-28T08:09:06.422Z,6.86
2022-11-28T08:10:06.523Z,6.87
2022-11-28T08:11:06.683Z,6.86
2022-11-28T08:13:06.292Z,6.90
2022-11-28T08:14:06.492Z,6.87
2022-11-28T08:15:06.268Z,6.87
2022-11-28T08:16:06.725Z,6.89
2022-11-28T08:17:06.563Z,6.86
2022-11-28T08:18:06.431Z,6.87
2022-11-28T08:19:06.339Z,6.89
2022-11-28T08:20:06.287Z,6.91
2022-11-28T08:21:06.447Z,6.91
2022-11-28T08:22:06.348Z,6.94
2022-11-28T08:23:06.401Z,6.95
2022-11-28T08:24:06.351Z,6.95
2022-11-28T08:25:06.515Z,6.95
2022-11-28T08:26:06.154Z,6.97
2022-11-28T08:27:06.433Z,6.95
2022-11-28T08:28:06.206Z,6.98
2022-11-28T08:29:06.431Z,6.99
2022-11-28T08:30:06.192Z,6.99
2022-11-28T08:31:06.204Z,7.01
2022-11-28T08:32:06.321Z,6.99
2022-11-28T08:33:06.161Z,7.01
2022-11-28T08:34:06.517Z,7.02
2022-11-28T08:35:06.487Z,7.02
2022-11-28T08:36:06.038Z,7.02
2022-11-28T08:37:06.494Z,7.02
2022-11-28T08:38:06.344Z,7.01
2022-11-28T08:40:06.032Z,7.04
2022-11-28T08:41:05.986Z,7.01
2022-11-28T08:42:05.993Z,7.04
2022-11-28T08:43:06.025Z,7.04
2022-11-28T08:44:06.022Z,7.07
2022-11-28T08:45:05.968Z,7.08
2022-11-28T08:46:06.255Z,7.09
2022-11-28T08:47:05.988Z,7.12
2022-11-28T08:48:05.916Z,7.16
2022-11-28T08:49:05.946Z,7.16
2022-11-28T08:50:05.920Z,7.15
2022-11-28T08:51:05.959Z,7.15
2022-11-28T08:52:05.910Z,7.17
2022-11-28T08:53:08.599Z,7.15
2022-11-28T08:54:06.106Z,7.16
2022-11-28T08:55:05.865Z,7.19
2022-11-28T08:56:06.280Z,7.22
2022-11-28T08:57:05.874Z,7.22
2022-11-28T08:58:05.808Z,7.20
2022-11-28T08:59:05.959Z,7.22
2022-11-28T09:00:05.994Z,7.20
2022-11-28T09:01:05.834Z,7.20
2022-11-28T09:02:07.002Z,7.20
2022-11-28T09:03:05.790Z,7.20
2022-11-28T09:04:05.883Z,7.22
2022-11-28T09:05:05.861Z,7.23
2022-11-28T09:06:05.778Z,7.23
2022-11-28T09:07:05.744Z,7.26
2022-11-28T09:08:10.152Z,7.27
2022-11-28T09:09:05.708Z,7.27
2022-11-28T09:10:05.917Z,7.31
2022-11-28T09:11:05.928Z,7.29
2022-11-28T09:12:05.907Z,7.27
2022-11-28T09:13:05.906Z,7.29
2022-11-28T09:14:05.668Z,7.31
2022-11-28T09:15:05.871Z,7.34
2022-11-28T09:16:05.947Z,7.31
2022-11-28T09:17:05.810Z,7.34
2022-11-28T09:18:05.782Z,7.35
2022-11-28T09:19:05.738Z,7.35
2022-11-28T09:20:05.647Z,7.35
2022-11-28T09:21:05.757Z,7.35
2022-11-28T09:22:05.611Z,7.37
2022-11-28T09:23:05.738Z,7.38
2022-11-28T09:24:05.715Z,7.40
2022-11-28T09:25:05.697Z,7.42
2022-11-28T09:26:05.562Z,7.41
2022-11-28T09:27:05.917Z,7.40
2022-11-28T09:28:05.522Z,7.40
2022-11-28T09:29:05.950Z,7.38
2022-11-28T09:30:05.543Z,7.40
2022-11-28T09:31:05.712Z,7.40
2022-11-28T09:32:05.608Z,7.41
2022-11-28T09:33:05.640Z,7.41
2022-11-28T09:34:05.481Z,7.40
2022-11-28T09:35:05.488Z,7.41
2022-11-28T09:36:05.432Z,7.41
2022-11-28T09:37:05.435Z,7.42
2022-11-28T09:38:05.716Z,7.45
2022-11-28T09:39:05.416Z,7.42
2022-11-28T09:40:13.069Z,7.44
2022-11-28T09:41:05.648Z,7.44
2022-11-28T09:42:05.395Z,7.47
2022-11-28T09:43:05.349Z,7.47
2022-11-28T09:44:05.462Z,7.49
2022-11-28T09:45:05.369Z,7.49
2022-11-28T09:46:05.382Z,7.52
2022-11-28T09:47:05.580Z,7.52
2022-11-28T09:48:05.370Z,7.55
2022-11-28T09:49:05.317Z,7.56
2022-11-28T09:50:05.539Z,7.58
2022-11-28T09:51:05.328Z,7.59
2022-11-28T09:52:05.341Z,7.56
2022-11-28T09:53:05.300Z,7.58
2022-11-28T09:54:05.427Z,7.58
2022-11-28T09:55:05.451Z,7.56
2022-11-28T09:56:05.417Z,7.58
2022-11-28T09:57:05.274Z,7.58
2022-11-28T09:58:05.348Z,7.59
2022-11-28T09:59:05.290Z,7.59
2022-11-28T10:00:05.259Z,7.55
2022-11-28T10:01:05.369Z,7.53
2022-11-28T10:02:05.187Z,7.55
2022-11-28T10:03:05.445Z,7.55
2022-11-28T10:04:05.398Z,7.55
2022-11-28T10:05:05.304Z,7.55
2022-11-28T10:06:05.291Z,7.55
2022-11-28T10:07:05.315Z,7.53
2022-11-28T10:08:05.351Z,7.52
2022-11-28T10:09:05.496Z,7.52
2022-11-28T10:10:05.306Z,7.53
2022-11-28T10:11:05.360Z,7.55
2022-11-28T10:12:05.228Z,7.56
2022-11-28T10:13:05.196Z,7.55
2022-11-28T10:14:08.920Z,7.53
2022-11-28T10:15:05.493Z,7.52
2022-11-28T10:16:05.267Z,7.52
2022-11-28T10:17:05.673Z,7.50
2022-11-28T10:18:05.348Z,7.50
2022-11-28T10:19:05.397Z,7.50
2022-11-28T10:20:05.041Z,7.52
2022-11-28T10:21:05.143Z,7.53
2022-11-28T10:22:05.282Z,7.56
2022-11-28T10:23:05.431Z,7.56
2022-11-28T10:24:05.198Z,7.58
2022-11-28T10:25:05.188Z,7.58
2022-11-28T10:26:05.012Z,7.53
2022-11-28T10:27:04.982Z,7.53
2022-11-28T10:28:05.109Z,7.52
2022-11-28T10:29:05.390Z,7.52
2022-11-28T10:30:05.266Z,7.53
2022-11-28T10:31:05.073Z,7.52
2022-11-28T10:32:05.040Z,7.52
2022-11-28T10:33:05.042Z,7.53
2022-11-28T10:34:05.046Z,7.53
2022-11-28T10:35:05.126Z,7.55
2022-11-28T10:36:04.921Z,7.58
2022-11-28T10:37:04.866Z,7.59
2022-11-28T10:38:04.867Z,7.59
2022-11-28T10:39:09.837Z,7.62
2022-11-28T10:40:04.842Z,7.66
2022-11-28T10:41:05.397Z,7.66
2022-11-28T10:42:04.866Z,7.74
2022-11-28T10:43:04.791Z,7.72
2022-11-28T10:44:05.097Z,7.74
2022-11-28T10:45:04.958Z,7.75
2022-11-28T10:46:04.997Z,7.74
2022-11-28T10:47:04.826Z,7.74
2022-11-28T10:48:29.889Z,7.78
2022-11-28T10:49:04.717Z,7.78
2022-11-28T10:50:04.911Z,7.77
2022-11-28T10:51:04.678Z,7.77
2022-11-28T10:52:04.804Z,7.78
2022-11-28T10:53:04.707Z,7.79
2022-11-28T10:54:04.701Z,7.78
2022-11-28T10:55:04.672Z,7.77
2022-11-28T10:56:09.905Z,7.78
2022-11-28T10:57:04.653Z,7.79
2022-11-28T10:58:04.648Z,7.81
2022-11-28T10:59:04.657Z,7.81
2022-11-28T11:00:04.711Z,7.81
2022-11-28T11:01:04.676Z,7.84
2022-11-28T11:02:04.677Z,7.82
2022-11-28T11:03:04.646Z,7.85
2022-11-28T11:04:04.626Z,7.85
2022-11-28T11:05:04.770Z,7.89
2022-11-28T11:06:04.552Z,7.90
2022-11-28T11:07:11.885Z,7.93
2022-11-28T11:08:04.649Z,7.99
2022-11-28T11:09:04.706Z,7.99
2022-11-28T11:10:04.563Z,8.03
2022-11-28T11:11:04.739Z,8.07
2022-11-28T11:12:04.584Z,8.10
2022-11-28T11:13:04.637Z,8.10
2022-11-28T11:14:04.658Z,8.10
2022-11-28T11:15:04.458Z,8.10
2022-11-28T11:16:04.636Z,8.08
2022-11-28T11:17:04.656Z,8.08
2022-11-28T11:18:04.625Z,8.11
2022-11-28T11:19:04.487Z,8.11
2022-11-28T11:20:04.531Z,8.11
2022-11-28T11:21:04.447Z,8.12
2022-11-28T11:22:04.401Z,8.11
2022-11-28T11:23:04.473Z,8.07
2022-11-28T11:24:04.516Z,8.02
2022-11-28T11:25:04.437Z,8.00
2022-11-28T11:26:04.529Z,7.96
2022-11-28T11:27:04.491Z,7.97
2022-11-28T11:28:04.336Z,8.02
2022-11-28T11:29:04.523Z,8.03
2022-11-28T11:30:04.525Z,8.11
2022-11-28T11:31:04.356Z,8.11
2022-11-28T11:32:04.282Z,8.12
2022-11-28T11:33:04.280Z,8.12
2022-11-28T11:34:04.514Z,8.14
2022-11-28T11:35:04.504Z,8.17
2022-11-28T11:36:04.514Z,8.17
2022-11-28T11:37:04.431Z,8.18
2022-11-28T11:38:04.244Z,8.18
2022-11-28T11:39:04.293Z,8.21
2022-11-28T11:40:04.201Z,8.14
2022-11-28T11:41:04.227Z,8.14
2022-11-28T11:42:04.232Z,8.10
2022-11-28T11:43:04.522Z,8.02
2022-11-28T11:44:04.385Z,7.96
2022-11-28T11:45:04.505Z,7.93
2022-11-28T11:46:04.218Z,7.96
2022-11-28T11:47:04.194Z,7.97
2022-11-28T11:48:04.222Z,8.00
2022-11-28T11:49:04.214Z,8.03
2022-11-28T11:50:04.317Z,8.04
2022-11-28T11:51:04.117Z,8.08
2022-11-28T11:52:04.428Z,8.08
2022-11-28T11:53:04.384Z,8.10
2022-11-28T11:54:04.323Z,8.10
2022-11-28T11:55:04.070Z,8.08
2022-11-28T11:56:04.137Z,8.08
2022-11-28T11:57:31.531Z,8.00
2022-11-28T11:58:06.011Z,8.00
2022-11-28T11:59:04.018Z,8.00
2022-11-28T12:00:04.052Z,8.02
2022-11-28T12:01:04.002Z,8.04
2022-11-28T12:02:04.194Z,8.03
2022-11-28T12:03:04.166Z,8.02
2022-11-28T12:04:17.949Z,8.02
2022-11-28T12:05:04.102Z,8.00
2022-11-28T12:06:14.208Z,8.02
2022-11-28T12:07:04.081Z,8.02
2022-11-28T12:08:04.051Z,8.00
2022-11-28T12:09:04.010Z,7.99
2022-11-28T12:10:04.905Z,8.02
2022-11-28T12:11:03.973Z,8.00
2022-11-28T12:12:03.940Z,8.02
2022-11-28T12:13:04.062Z,8.00
2022-11-28T12:14:03.911Z,7.96
2022-11-28T12:15:03.999Z,7.97
2022-11-28T12:16:03.968Z,7.97
2022-11-28T12:17:19.470Z,7.99
2022-11-28T12:18:03.901Z,7.99
2022-11-28T12:19:04.004Z,8.00
2022-11-28T12:20:03.852Z,8.02
2022-11-28T12:21:03.891Z,8.02
2022-11-28T12:22:03.929Z,8.03
2022-11-28T12:23:04.044Z,8.04
2022-11-28T12:24:03.926Z,8.04
2022-11-28T12:25:03.957Z,8.08
2022-11-28T12:26:03.763Z,8.07
2022-11-28T12:27:03.744Z,8.10
2022-11-28T12:28:03.765Z,8.10
2022-11-28T12:29:03.773Z,8.10
2022-11-28T12:30:03.825Z,8.04
2022-11-28T12:31:03.808Z,8.04
2022-11-28T12:32:03.707Z,8.03
2022-11-28T12:33:03.866Z,8.03
2022-11-28T12:34:03.657Z,8.08
2022-11-28T12:35:03.810Z,8.03
2022-11-28T12:36:03.695Z,8.02
2022-11-28T12:37:03.852Z,8.02
2022-11-28T12:38:11.924Z,8.02
2022-11-28T12:39:03.656Z,8.03
2022-11-28T12:40:03.801Z,8.07
2022-11-28T12:41:03.848Z,8.10
2022-11-28T12:42:03.751Z,8.10
2022-11-28T12:43:03.754Z,8.08
2022-11-28T12:44:03.723Z,8.07
2022-11-28T12:45:03.723Z,8.08
2022-11-28T12:46:03.632Z,8.07
2022-11-28T12:47:03.799Z,8.08
2022-11-28T12:48:03.683Z,8.08
2022-11-28T12:49:03.533Z,8.07
2022-11-28T12:50:03.521Z,8.07
2022-11-28T12:51:03.587Z,8.04
2022-11-28T12:52:03.528Z,8.07
2022-11-28T12:53:03.804Z,8.04
2022-11-28T12:54:03.460Z,8.08
2022-11-28T12:55:03.460Z,8.04
2022-11-28T12:56:03.502Z,8.03
2022-11-28T12:57:03.437Z,8.03
2022-11-28T12:58:06.919Z,8.04
2022-11-28T12:59:03.540Z,8.03
2022-11-28T13:00:08.500Z,8.04
2022-11-28T13:01:03.509Z,8.04
2022-11-28T13:02:09.452Z,8.02
2022-11-28T13:03:03.621Z,8.03
2022-11-28T13:04:03.617Z,8.07
2022-11-28T13:05:03.437Z,8.10
2022-11-28T13:06:03.440Z,8.12
2022-11-28T13:07:03.361Z,8.12
2022-11-28T13:08:03.597Z,8.14
2022-11-28T13:09:03.376Z,8.14
2022-11-28T13:10:03.460Z,8.17
2022-11-28T13:11:03.664Z,8.17
2022-11-28T13:12:03.491Z,8.20
2022-11-28T13:13:03.297Z,8.18
2022-11-28T13:14:03.274Z,8.21
2022-11-28T13:15:03.288Z,8.21
2022-11-28T13:16:03.480Z,8.20
2022-11-28T13:17:03.269Z,8.18
2022-11-28T13:18:03.243Z,8.17
2022-11-28T13:19:03.303Z,8.15
2022-11-28T13:20:03.397Z,8.15